LLIB/RPN METAR and TAF weather

Enter ICAO airport designator
Station Type Date Time Source
LLIB METAR 2019/10/20 13:50 UTC NOAA

LLIB 201350Z 30009KT 9999 FEW030 27/14 Q1016


Station Type Date Time Source
LLIB Decoded METAR 2019/10/20 13:50 UTC NOAA

Galilee / Pina, Israel (LLIB) 32-58-48N 035-34-12E
Oct 20, 2019 - 09:50 AM EDT / 2019.10.20 1350 UTC
Wind: from the WNW (300 degrees) at 10 MPH (9 KT):0
Visibility: greater than 7 mile(s):0
Sky conditions: mostly clear
Temperature: 80 F (27 C)
Dew Point: 57 F (14 C)
Relative Humidity: 44%
Pressure (altimeter): 30.00 in. Hg (1016 hPa)
ob: LLIB 201350Z 30009KT 9999 FEW030 27/14 Q1016
cycle: 14

Station Type Date Time Source
LLIB TAF 2019/10/20 12:21 UTC NOAA

TAF LLIB 201116Z 2012/2112 32010KT 9999 SCT030
TEMPO 2012/2015 -RA BKN030 FEW120TCU
BECMG 2017/2019 VRB04KT SCT020 PROB40 2022/2105 5000 BR BKN015
BECMG 2106/2108 15006KT FEW030 TX28/2012Z TN17/2104Z

Example: see airport list